RPA3570 KEWR-KMSY
Flight info
| Callsign | RPA3570 |
|---|---|
| Flight time | 3h 4m |
| Altitude | 30000 |
| Route | LANNA J48 CSN FANPO Q40 YICUT/N0406F320 Q40 NIOLA MERDN TRSSH1 |
| Aircraft | E75L/M-SDE3GILORVW/S |
Departure
| Time | 2026-04-21 00:01 |
|---|---|
| Airport | Newark Liberty International Airport (KEWR) |
Arrival
| Time | 2026-04-21 03:05 |
|---|---|
| Airport | Louis Armstrong New Orleans International Airport (KMSY) |
| Time | Latitude | Longitude | Altitude | Speed | Heading |
|---|---|---|---|---|---|
| 2026-04-20 23:27 | 40.69357 | -74.17266 | 14 ft | 0 kts | 41° |
| 2026-04-20 23:42 | 40.69346 | -74.17278 | 14 ft | 4 kts | 35° |
| 2026-04-20 23:42 | 40.69323 | -74.17297 | 14 ft | 4 kts | 38° |
| 2026-04-20 23:42 | 40.69316 | -74.17312 | 14 ft | 1 kts | 134° |
| 2026-04-20 23:43 | 40.69319 | -74.17317 | 14 ft | 0 kts | 134° |
| 2026-04-20 23:47 | 40.69314 | -74.17309 | 14 ft | 4 kts | 134° |
| 2026-04-20 23:47 | 40.69288 | -74.17266 | 14 ft | 8 kts | 123° |
| 2026-04-20 23:47 | 40.69255 | -74.17192 | 15 ft | 10 kts | 117° |
| 2026-04-20 23:47 | 40.69220 | -74.17099 | 18 ft | 10 kts | 116° |
| 2026-04-20 23:48 | 40.69166 | -74.17073 | 16 ft | 10 kts | 201° |
| 2026-04-20 23:48 | 40.69094 | -74.17118 | 15 ft | 14 kts | 206° |
| 2026-04-20 23:48 | 40.68998 | -74.17179 | 16 ft | 17 kts | 205° |
| 2026-04-20 23:48 | 40.68907 | -74.17236 | 18 ft | 14 kts | 206° |
| 2026-04-20 23:49 | 40.68816 | -74.17294 | 21 ft | 15 kts | 206° |
| 2026-04-20 23:49 | 40.68720 | -74.17355 | 22 ft | 15 kts | 206° |
| 2026-04-20 23:49 | 40.68622 | -74.17418 | 24 ft | 16 kts | 206° |
| 2026-04-20 23:49 | 40.68509 | -74.17490 | 21 ft | 20 kts | 205° |
| 2026-04-20 23:50 | 40.68379 | -74.17573 | 20 ft | 22 kts | 205° |
| 2026-04-20 23:50 | 40.68277 | -74.17637 | 16 ft | 12 kts | 206° |
| 2026-04-20 23:50 | 40.68226 | -74.17660 | 17 ft | 4 kts | 155° |
| 2026-04-20 23:50 | 40.68219 | -74.17648 | 16 ft | 0 kts | 115° |
| 2026-04-20 23:57 | 40.68217 | -74.17644 | 16 ft | 2 kts | 115° |
| 2026-04-20 23:57 | 40.68202 | -74.17602 | 16 ft | 8 kts | 116° |
| 2026-04-20 23:57 | 40.68200 | -74.17526 | 17 ft | 8 kts | 39° |
| 2026-04-20 23:57 | 40.68214 | -74.17515 | 16 ft | 0 kts | 27° |
| 2026-04-20 23:59 | 40.68216 | -74.17514 | 16 ft | 3 kts | 27° |
| 2026-04-21 00:00 | 40.68378 | -74.17412 | 20 ft | 57 kts | 25° |
| 2026-04-21 00:00 | 40.68907 | -74.17079 | 18 ft | 115 kts | 26° |
| 2026-04-21 00:00 | 40.69766 | -74.16527 | 81 ft | 158 kts | 24° |
| 2026-04-21 00:00 | 40.70796 | -74.15860 | 573 ft | 173 kts | 23° |
| 2026-04-21 00:01 | 40.71923 | -74.15113 | 1212 ft | 188 kts | 23° |
| 2026-04-21 00:01 | 40.73073 | -74.14195 | 2011 ft | 201 kts | 31° |
| 2026-04-21 00:01 | 40.74302 | -74.13350 | 2859 ft | 198 kts | 19° |
| 2026-04-21 00:01 | 40.75555 | -74.12492 | 2893 ft | 208 kts | 32° |
| 2026-04-21 00:02 | 40.76592 | -74.11101 | 2921 ft | 216 kts | 48° |
| 2026-04-21 00:02 | 40.77684 | -74.09953 | 3202 ft | 201 kts | 15° |
| 2026-04-21 00:02 | 40.78995 | -74.09892 | 3781 ft | 188 kts | 348° |
| 2026-04-21 00:02 | 40.80132 | -74.10656 | 4194 ft | 188 kts | 312° |
| 2026-04-21 00:03 | 40.80617 | -74.12255 | 4484 ft | 203 kts | 274° |
| 2026-04-21 00:03 | 40.80299 | -74.14167 | 4816 ft | 225 kts | 257° |
| 2026-04-21 00:03 | 40.79815 | -74.16259 | 4932 ft | 251 kts | 258° |
| 2026-04-21 00:03 | 40.79307 | -74.18548 | 5265 ft | 264 kts | 258° |
| 2026-04-21 00:04 | 40.78794 | -74.20870 | 5919 ft | 263 kts | 258° |
| 2026-04-21 00:04 | 40.78294 | -74.23155 | 6541 ft | 262 kts | 258° |
| 2026-04-21 00:04 | 40.77781 | -74.25474 | 7029 ft | 265 kts | 257° |
| 2026-04-21 00:04 | 40.77266 | -74.27811 | 7517 ft | 268 kts | 258° |
| 2026-04-21 00:05 | 40.76746 | -74.30200 | 8014 ft | 270 kts | 257° |
| 2026-04-21 00:05 | 40.76235 | -74.32588 | 8503 ft | 272 kts | 257° |
| 2026-04-21 00:05 | 40.75724 | -74.34995 | 8990 ft | 274 kts | 258° |
| 2026-04-21 00:05 | 40.75214 | -74.37417 | 9475 ft | 275 kts | 258° |
| 2026-04-21 00:06 | 40.74705 | -74.39845 | 9962 ft | 274 kts | 258° |
| 2026-04-21 00:06 | 40.74286 | -74.42292 | 10193 ft | 284 kts | 261° |
| 2026-04-21 00:06 | 40.73831 | -74.44864 | 10222 ft | 301 kts | 256° |
| 2026-04-21 00:06 | 40.73145 | -74.47456 | 10258 ft | 315 kts | 250° |
| 2026-04-21 00:07 | 40.72238 | -74.50202 | 10406 ft | 323 kts | 248° |
| 2026-04-21 00:07 | 40.71393 | -74.52760 | 10758 ft | 321 kts | 250° |
| 2026-04-21 00:07 | 40.70538 | -74.55600 | 11233 ft | 317 kts | 251° |
| 2026-04-21 00:07 | 40.69794 | -74.58343 | 11674 ft | 315 kts | 252° |
| 2026-04-21 00:08 | 40.69060 | -74.61069 | 12014 ft | 315 kts | 252° |
| 2026-04-21 00:08 | 40.68314 | -74.63728 | 12404 ft | 314 kts | 251° |
| 2026-04-21 00:08 | 40.67518 | -74.66431 | 12670 ft | 317 kts | 250° |
| 2026-04-21 00:08 | 40.66689 | -74.69142 | 12990 ft | 319 kts | 250° |
| 2026-04-21 00:09 | 40.65867 | -74.71795 | 13283 ft | 321 kts | 250° |
| 2026-04-21 00:09 | 40.65023 | -74.74536 | 13605 ft | 323 kts | 250° |
| 2026-04-21 00:09 | 40.64180 | -74.77283 | 13925 ft | 325 kts | 250° |
| 2026-04-21 00:09 | 40.63343 | -74.80011 | 14243 ft | 327 kts | 250° |
| 2026-04-21 00:10 | 40.62480 | -74.82792 | 14576 ft | 329 kts | 250° |
| 2026-04-21 00:10 | 40.61604 | -74.85586 | 14869 ft | 331 kts | 250° |
| 2026-04-21 00:10 | 40.60713 | -74.88391 | 15208 ft | 333 kts | 250° |
| 2026-04-21 00:10 | 40.59811 | -74.91212 | 15559 ft | 335 kts | 249° |
| 2026-04-21 00:11 | 40.58897 | -74.94049 | 15914 ft | 337 kts | 250° |
| 2026-04-21 00:11 | 40.58010 | -74.96779 | 16232 ft | 339 kts | 249° |
| 2026-04-21 00:11 | 40.57076 | -74.99616 | 16581 ft | 342 kts | 249° |
| 2026-04-21 00:11 | 40.56133 | -75.02378 | 16891 ft | 345 kts | 245° |
| 2026-04-21 00:12 | 40.54721 | -75.04989 | 17220 ft | 351 kts | 234° |
| 2026-04-21 00:12 | 40.53169 | -75.07468 | 17562 ft | 354 kts | 233° |
| 2026-04-21 00:12 | 40.51570 | -75.09954 | 17958 ft | 355 kts | 233° |
| 2026-04-21 00:12 | 40.49972 | -75.12443 | 18281 ft | 358 kts | 234° |
| 2026-04-21 00:13 | 40.48426 | -75.14882 | 18629 ft | 360 kts | 234° |
| 2026-04-21 00:13 | 40.46802 | -75.17465 | 18985 ft | 362 kts | 234° |
| 2026-04-21 00:13 | 40.45207 | -75.20002 | 19322 ft | 364 kts | 234° |
| 2026-04-21 00:13 | 40.43610 | -75.22532 | 19683 ft | 365 kts | 234° |
| 2026-04-21 00:14 | 40.42042 | -75.25013 | 20020 ft | 367 kts | 234° |
| 2026-04-21 00:14 | 40.40414 | -75.27585 | 20352 ft | 370 kts | 234° |
| 2026-04-21 00:14 | 40.38770 | -75.30180 | 20699 ft | 372 kts | 234° |
| 2026-04-21 00:14 | 40.37138 | -75.32756 | 21043 ft | 374 kts | 234° |
| 2026-04-21 00:15 | 40.35464 | -75.35386 | 21396 ft | 376 kts | 234° |
| 2026-04-21 00:15 | 40.33798 | -75.38001 | 21737 ft | 378 kts | 234° |
| 2026-04-21 00:15 | 40.32126 | -75.40627 | 22072 ft | 380 kts | 234° |
| 2026-04-21 00:15 | 40.30423 | -75.43303 | 22409 ft | 383 kts | 234° |
| 2026-04-21 00:16 | 40.28716 | -75.45982 | 22750 ft | 385 kts | 234° |
| 2026-04-21 00:16 | 40.27000 | -75.48668 | 23092 ft | 387 kts | 234° |
| 2026-04-21 00:16 | 40.25265 | -75.51383 | 23408 ft | 389 kts | 234° |
| 2026-04-21 00:16 | 40.23516 | -75.54114 | 23738 ft | 391 kts | 234° |
| 2026-04-21 00:17 | 40.21880 | -75.56849 | 24035 ft | 391 kts | 239° |
| 2026-04-21 00:17 | 40.20332 | -75.59816 | 24357 ft | 393 kts | 240° |
| 2026-04-21 00:17 | 40.18856 | -75.62742 | 24674 ft | 395 kts | 240° |
| 2026-04-21 00:17 | 40.17361 | -75.65756 | 24998 ft | 397 kts | 241° |
| 2026-04-21 00:18 | 40.15854 | -75.68777 | 25336 ft | 400 kts | 240° |
| 2026-04-21 00:18 | 40.14347 | -75.71767 | 25683 ft | 401 kts | 240° |
| 2026-04-21 00:18 | 40.12798 | -75.74821 | 26045 ft | 403 kts | 240° |
| 2026-04-21 00:18 | 40.11272 | -75.77820 | 26514 ft | 401 kts | 240° |
| 2026-04-21 00:19 | 40.09723 | -75.80868 | 26967 ft | 400 kts | 241° |
| 2026-04-21 00:19 | 40.08203 | -75.83866 | 27400 ft | 400 kts | 241° |
| 2026-04-21 00:19 | 40.06707 | -75.86829 | 27791 ft | 400 kts | 241° |
| 2026-04-21 00:19 | 40.05183 | -75.89848 | 28261 ft | 399 kts | 241° |
| 2026-04-21 00:20 | 40.03736 | -75.92711 | 28664 ft | 399 kts | 242° |
| 2026-04-21 00:20 | 40.02223 | -75.95702 | 29049 ft | 399 kts | 242° |
| 2026-04-21 00:20 | 40.00773 | -75.98563 | 29445 ft | 398 kts | 242° |
| 2026-04-21 00:20 | 39.99225 | -76.01612 | 29823 ft | 397 kts | 242° |
| 2026-04-21 00:21 | 39.97688 | -76.04634 | 30186 ft | 397 kts | 242° |
| 2026-04-21 00:21 | 39.96249 | -76.07456 | 30421 ft | 386 kts | 242° |
| 2026-04-21 00:21 | 39.94793 | -76.10298 | 30214 ft | 375 kts | 242° |
| 2026-04-21 00:21 | 39.93375 | -76.13071 | 30400 ft | 366 kts | 242° |
| 2026-04-21 00:22 | 39.91965 | -76.15855 | 30388 ft | 374 kts | 242° |
| 2026-04-21 00:22 | 39.89093 | -76.21491 | 30278 ft | 374 kts | 242° |
| 2026-04-21 00:23 | 39.86318 | -76.26887 | 30326 ft | 376 kts | 242° |
| 2026-04-21 00:23 | 39.83485 | -76.32399 | 30338 ft | 374 kts | 242° |
| 2026-04-21 00:24 | 39.80585 | -76.38045 | 30325 ft | 374 kts | 243° |
| 2026-04-21 00:24 | 39.77748 | -76.43560 | 30330 ft | 374 kts | 243° |
| 2026-04-21 00:25 | 39.74860 | -76.49148 | 30329 ft | 375 kts | 243° |
| 2026-04-21 00:25 | 39.71967 | -76.54736 | 30323 ft | 374 kts | 243° |
| 2026-04-21 00:26 | 39.69053 | -76.60365 | 30323 ft | 375 kts | 243° |
| 2026-04-21 00:26 | 39.66166 | -76.65934 | 30336 ft | 375 kts | 244° |
| 2026-04-21 00:27 | 39.63261 | -76.71521 | 30337 ft | 375 kts | 244° |
| 2026-04-21 00:27 | 39.60356 | -76.77093 | 30330 ft | 376 kts | 244° |
| 2026-04-21 00:28 | 39.57422 | -76.82716 | 30333 ft | 375 kts | 244° |
| 2026-04-21 00:28 | 39.54551 | -76.88218 | 30335 ft | 376 kts | 244° |
| 2026-04-21 00:29 | 39.51671 | -76.93717 | 30324 ft | 375 kts | 245° |
| 2026-04-21 00:29 | 39.48328 | -76.99001 | 30332 ft | 391 kts | 231° |
| 2026-04-21 00:30 | 39.44205 | -77.03520 | 30318 ft | 394 kts | 228° |
| 2026-04-21 00:30 | 39.40041 | -77.07826 | 30334 ft | 395 kts | 228° |
| 2026-04-21 00:31 | 39.35908 | -77.12161 | 30341 ft | 394 kts | 229° |
| 2026-04-21 00:31 | 39.31718 | -77.16593 | 30340 ft | 395 kts | 229° |
| 2026-04-21 00:32 | 39.27430 | -77.21103 | 30339 ft | 395 kts | 229° |
| 2026-04-21 00:32 | 39.23356 | -77.25375 | 30340 ft | 396 kts | 229° |
| 2026-04-21 00:33 | 39.19066 | -77.29867 | 30344 ft | 395 kts | 229° |
| 2026-04-21 00:33 | 39.14994 | -77.34129 | 30337 ft | 395 kts | 229° |
| 2026-04-21 00:34 | 39.10731 | -77.38580 | 30360 ft | 395 kts | 229° |
| 2026-04-21 00:34 | 39.06527 | -77.42966 | 30324 ft | 395 kts | 229° |
| 2026-04-21 00:35 | 39.02969 | -77.46666 | 30363 ft | 396 kts | 230° |
| 2026-04-21 00:35 | 38.98088 | -77.51742 | 30338 ft | 395 kts | 230° |
| 2026-04-21 00:36 | 38.93876 | -77.56120 | 30343 ft | 395 kts | 230° |
| 2026-04-21 00:36 | 38.90468 | -77.59644 | 30341 ft | 396 kts | 230° |
| 2026-04-21 00:37 | 38.86182 | -77.64076 | 30345 ft | 395 kts | 230° |
| 2026-04-21 00:37 | 38.81945 | -77.68458 | 30338 ft | 395 kts | 230° |
| 2026-04-21 00:38 | 38.77732 | -77.72801 | 30337 ft | 395 kts | 230° |
| 2026-04-21 00:38 | 38.73417 | -77.77245 | 30342 ft | 395 kts | 230° |
| 2026-04-21 00:39 | 38.69175 | -77.81603 | 30339 ft | 395 kts | 230° |
| 2026-04-21 00:39 | 38.65017 | -77.85916 | 30345 ft | 388 kts | 234° |
| 2026-04-21 00:39 | 38.63256 | -77.88349 | 30372 ft | 377 kts | 243° |
| 2026-04-21 00:40 | 38.61651 | -77.90912 | 30333 ft | 377 kts | 244° |
| 2026-04-21 00:40 | 38.58491 | -77.96199 | 30346 ft | 373 kts | 245° |
| 2026-04-21 00:41 | 38.55475 | -78.01292 | 30342 ft | 374 kts | 245° |
| 2026-04-21 00:41 | 38.52373 | -78.06453 | 30343 ft | 376 kts | 245° |
| 2026-04-21 00:42 | 38.49179 | -78.11741 | 30331 ft | 375 kts | 245° |
| 2026-04-21 00:42 | 38.46017 | -78.16994 | 30332 ft | 375 kts | 245° |
| 2026-04-21 00:43 | 38.42943 | -78.22091 | 30328 ft | 375 kts | 246° |
| 2026-04-21 00:43 | 38.40443 | -78.26996 | 30315 ft | 368 kts | 250° |
| 2026-04-21 00:44 | 38.37767 | -78.32444 | 30321 ft | 367 kts | 251° |
| 2026-04-21 00:44 | 38.35170 | -78.37795 | 30316 ft | 368 kts | 251° |
| 2026-04-21 00:45 | 38.31160 | -78.45987 | 30330 ft | 367 kts | 251° |
| 2026-04-21 00:45 | 38.28490 | -78.51436 | 30328 ft | 368 kts | 251° |
| 2026-04-21 00:46 | 38.25855 | -78.56817 | 30299 ft | 368 kts | 251° |
| 2026-04-21 00:46 | 38.23147 | -78.62305 | 30309 ft | 367 kts | 251° |
| 2026-04-21 00:47 | 38.20478 | -78.67732 | 30318 ft | 369 kts | 251° |
| 2026-04-21 00:47 | 38.17729 | -78.73293 | 30332 ft | 368 kts | 250° |
| 2026-04-21 00:48 | 38.15035 | -78.78750 | 30321 ft | 370 kts | 250° |
| 2026-04-21 00:48 | 38.12368 | -78.84138 | 30323 ft | 371 kts | 251° |
| 2026-04-21 00:49 | 38.09759 | -78.89395 | 30314 ft | 372 kts | 250° |
| 2026-04-21 00:49 | 38.07015 | -78.94910 | 30321 ft | 372 kts | 250° |
| 2026-04-21 00:50 | 38.04263 | -79.00441 | 30313 ft | 372 kts | 250° |
| 2026-04-21 00:50 | 38.01509 | -79.05975 | 30318 ft | 374 kts | 250° |
| 2026-04-21 00:51 | 37.98822 | -79.11353 | 30317 ft | 372 kts | 250° |
| 2026-04-21 00:51 | 37.96087 | -79.16807 | 30319 ft | 368 kts | 250° |
| 2026-04-21 00:52 | 37.93418 | -79.22153 | 30284 ft | 371 kts | 250° |
| 2026-04-21 00:52 | 37.90682 | -79.27601 | 30318 ft | 370 kts | 250° |
| 2026-04-21 00:53 | 37.87901 | -79.33127 | 30305 ft | 370 kts | 250° |
| 2026-04-21 00:53 | 37.85162 | -79.38554 | 30297 ft | 371 kts | 250° |
| 2026-04-21 00:54 | 37.82385 | -79.44047 | 30294 ft | 372 kts | 250° |
| 2026-04-21 00:54 | 37.79638 | -79.49481 | 30291 ft | 371 kts | 250° |
| 2026-04-21 00:55 | 37.76856 | -79.54981 | 30306 ft | 372 kts | 250° |
| 2026-04-21 00:55 | 37.74072 | -79.60470 | 30303 ft | 373 kts | 250° |
| 2026-04-21 00:56 | 37.71300 | -79.65914 | 30288 ft | 373 kts | 250° |
| 2026-04-21 00:56 | 37.68499 | -79.71425 | 30291 ft | 373 kts | 250° |
| 2026-04-21 00:57 | 37.65719 | -79.76868 | 30279 ft | 375 kts | 250° |
| 2026-04-21 00:57 | 37.62893 | -79.82392 | 30272 ft | 374 kts | 250° |
| 2026-04-21 00:58 | 37.60139 | -79.87787 | 30317 ft | 374 kts | 250° |
| 2026-04-21 00:58 | 37.57365 | -79.93199 | 30299 ft | 374 kts | 250° |
| 2026-04-21 00:59 | 37.54607 | -79.98557 | 30317 ft | 374 kts | 250° |
| 2026-04-21 00:59 | 37.51948 | -80.03724 | 30306 ft | 373 kts | 250° |
| 2026-04-21 01:00 | 37.49197 | -80.09073 | 30320 ft | 374 kts | 250° |
| 2026-04-21 01:00 | 37.46452 | -80.14393 | 30304 ft | 374 kts | 249° |
| 2026-04-21 01:01 | 37.43755 | -80.19619 | 30299 ft | 374 kts | 250° |
| 2026-04-21 01:01 | 37.40920 | -80.25095 | 30331 ft | 374 kts | 249° |
| 2026-04-21 01:02 | 37.38099 | -80.30530 | 30337 ft | 374 kts | 249° |
| 2026-04-21 01:02 | 37.35266 | -80.35974 | 30343 ft | 374 kts | 249° |
| 2026-04-21 01:03 | 37.32473 | -80.41365 | 30349 ft | 373 kts | 249° |
| 2026-04-21 01:03 | 37.29630 | -80.46800 | 30357 ft | 374 kts | 249° |
| 2026-04-21 01:04 | 37.26833 | -80.52185 | 30336 ft | 373 kts | 250° |
| 2026-04-21 01:04 | 37.24196 | -80.57670 | 30356 ft | 369 kts | 252° |
| 2026-04-21 01:05 | 37.21821 | -80.62737 | 30306 ft | 370 kts | 251° |
| 2026-04-21 01:05 | 37.19159 | -80.68240 | 30304 ft | 371 kts | 251° |
| 2026-04-21 01:06 | 37.16480 | -80.73775 | 30317 ft | 371 kts | 251° |
| 2026-04-21 01:06 | 37.13866 | -80.79181 | 30318 ft | 369 kts | 251° |
| 2026-04-21 01:07 | 37.11265 | -80.84563 | 30314 ft | 370 kts | 251° |
| 2026-04-21 01:07 | 37.08635 | -80.89982 | 30316 ft | 370 kts | 251° |
| 2026-04-21 01:08 | 37.05974 | -80.95455 | 30315 ft | 370 kts | 250° |
| 2026-04-21 01:08 | 37.03418 | -81.00706 | 30318 ft | 371 kts | 251° |
| 2026-04-21 01:09 | 37.00873 | -81.05939 | 30332 ft | 371 kts | 251° |
| 2026-04-21 01:09 | 36.98203 | -81.11411 | 30331 ft | 371 kts | 250° |
| 2026-04-21 01:10 | 36.95544 | -81.16840 | 30332 ft | 371 kts | 250° |
| 2026-04-21 01:10 | 36.92879 | -81.22299 | 30331 ft | 371 kts | 250° |
| 2026-04-21 01:11 | 36.90749 | -81.26638 | 30341 ft | 371 kts | 250° |
| 2026-04-21 01:11 | 36.87692 | -81.32849 | 30341 ft | 371 kts | 250° |
| 2026-04-21 01:12 | 36.85491 | -81.37330 | 30346 ft | 371 kts | 250° |
| 2026-04-21 01:12 | 36.82829 | -81.42741 | 30347 ft | 371 kts | 250° |
| 2026-04-21 01:13 | 36.80215 | -81.48080 | 30329 ft | 370 kts | 250° |
| 2026-04-21 01:13 | 36.77584 | -81.53463 | 30341 ft | 371 kts | 250° |
| 2026-04-21 01:14 | 36.74918 | -81.58897 | 30299 ft | 371 kts | 250° |
| 2026-04-21 01:14 | 36.72246 | -81.64304 | 30334 ft | 373 kts | 250° |
| 2026-04-21 01:15 | 36.69491 | -81.69672 | 30303 ft | 372 kts | 249° |
| 2026-04-21 01:15 | 36.66775 | -81.74923 | 30300 ft | 372 kts | 249° |
| 2026-04-21 01:16 | 36.63957 | -81.80443 | 30286 ft | 372 kts | 249° |
| 2026-04-21 01:16 | 36.61221 | -81.85773 | 30320 ft | 373 kts | 249° |
| 2026-04-21 01:17 | 36.58489 | -81.91087 | 30299 ft | 373 kts | 249° |
| 2026-04-21 01:17 | 36.55803 | -81.96297 | 30296 ft | 373 kts | 249° |
| 2026-04-21 01:18 | 36.53063 | -82.01608 | 30303 ft | 372 kts | 249° |
| 2026-04-21 01:18 | 36.50321 | -82.06917 | 30287 ft | 373 kts | 249° |
| 2026-04-21 01:19 | 36.47516 | -82.12337 | 30303 ft | 373 kts | 249° |
| 2026-04-21 01:19 | 36.44761 | -82.17642 | 30293 ft | 373 kts | 249° |
| 2026-04-21 01:20 | 36.42051 | -82.22869 | 30291 ft | 373 kts | 249° |
| 2026-04-21 01:20 | 36.39316 | -82.28122 | 30284 ft | 373 kts | 248° |
| 2026-04-21 01:21 | 36.36587 | -82.33351 | 30286 ft | 373 kts | 249° |
| 2026-04-21 01:21 | 36.33854 | -82.38600 | 30304 ft | 373 kts | 249° |
| 2026-04-21 01:22 | 36.31124 | -82.43825 | 30296 ft | 373 kts | 248° |
| 2026-04-21 01:22 | 36.28329 | -82.49165 | 30293 ft | 373 kts | 248° |
| 2026-04-21 01:23 | 36.25559 | -82.54453 | 30299 ft | 374 kts | 248° |
| 2026-04-21 01:23 | 36.22817 | -82.59675 | 30293 ft | 374 kts | 248° |
| 2026-04-21 01:24 | 36.19998 | -82.65036 | 30298 ft | 374 kts | 248° |
| 2026-04-21 01:24 | 36.17212 | -82.70339 | 30294 ft | 374 kts | 248° |
| 2026-04-21 01:25 | 36.14416 | -82.75637 | 30287 ft | 374 kts | 248° |
| 2026-04-21 01:25 | 36.11731 | -82.80716 | 30283 ft | 373 kts | 248° |
| 2026-04-21 01:26 | 36.08896 | -82.86074 | 30291 ft | 374 kts | 248° |
| 2026-04-21 01:26 | 36.06247 | -82.91078 | 30273 ft | 374 kts | 248° |
| 2026-04-21 01:27 | 36.03492 | -82.96275 | 30265 ft | 374 kts | 248° |
| 2026-04-21 01:27 | 36.00662 | -83.01609 | 30248 ft | 374 kts | 248° |
| 2026-04-21 01:28 | 35.97869 | -83.06846 | 30225 ft | 373 kts | 247° |
| 2026-04-21 01:28 | 35.95091 | -83.12071 | 30210 ft | 372 kts | 247° |
| 2026-04-21 01:29 | 35.92280 | -83.17324 | 30179 ft | 373 kts | 246° |
| 2026-04-21 01:29 | 35.89532 | -83.22635 | 30153 ft | 370 kts | 249° |
| 2026-04-21 01:30 | 35.86909 | -83.28033 | 30122 ft | 370 kts | 249° |
| 2026-04-21 01:30 | 35.84236 | -83.33436 | 30059 ft | 371 kts | 248° |
| 2026-04-21 01:31 | 35.81621 | -83.38661 | 29994 ft | 370 kts | 248° |
| 2026-04-21 01:31 | 35.78955 | -83.43987 | 29976 ft | 371 kts | 248° |
| 2026-04-21 01:32 | 35.76272 | -83.49353 | 29998 ft | 371 kts | 248° |
| 2026-04-21 01:32 | 35.73614 | -83.54647 | 30001 ft | 370 kts | 248° |
| 2026-04-21 01:33 | 35.70801 | -83.59924 | 30046 ft | 374 kts | 245° |
| 2026-04-21 01:33 | 35.68027 | -83.64966 | 30077 ft | 372 kts | 246° |
| 2026-04-21 01:34 | 35.65174 | -83.70251 | 30151 ft | 373 kts | 246° |
| 2026-04-21 01:34 | 35.62350 | -83.75482 | 30185 ft | 371 kts | 246° |
| 2026-04-21 01:35 | 35.59582 | -83.80592 | 30212 ft | 373 kts | 246° |
| 2026-04-21 01:35 | 35.56783 | -83.85760 | 30235 ft | 373 kts | 246° |
| 2026-04-21 01:36 | 35.53944 | -83.90978 | 30265 ft | 373 kts | 246° |
| 2026-04-21 01:36 | 35.51055 | -83.96276 | 30296 ft | 373 kts | 246° |
| 2026-04-21 01:37 | 35.48179 | -84.01557 | 30300 ft | 373 kts | 246° |
| 2026-04-21 01:37 | 35.45371 | -84.06709 | 30306 ft | 372 kts | 246° |
| 2026-04-21 01:38 | 35.42545 | -84.11888 | 30305 ft | 372 kts | 246° |
| 2026-04-21 01:38 | 35.39693 | -84.17090 | 30303 ft | 372 kts | 246° |
| 2026-04-21 01:39 | 35.36826 | -84.22325 | 30289 ft | 371 kts | 246° |
| 2026-04-21 01:39 | 35.33999 | -84.27473 | 30300 ft | 371 kts | 245° |
| 2026-04-21 01:40 | 35.31179 | -84.32596 | 30287 ft | 370 kts | 245° |
| 2026-04-21 01:40 | 35.28339 | -84.37756 | 30305 ft | 370 kts | 245° |
| 2026-04-21 01:41 | 35.25492 | -84.42916 | 30303 ft | 370 kts | 245° |
| 2026-04-21 01:41 | 35.22631 | -84.48090 | 30308 ft | 370 kts | 245° |
| 2026-04-21 01:42 | 35.19887 | -84.53060 | 30297 ft | 370 kts | 245° |
| 2026-04-21 01:42 | 35.17019 | -84.58235 | 30318 ft | 371 kts | 245° |
| 2026-04-21 01:43 | 35.14321 | -84.63096 | 30296 ft | 369 kts | 245° |
| 2026-04-21 01:43 | 35.11469 | -84.68235 | 30275 ft | 369 kts | 245° |
| 2026-04-21 01:44 | 35.08614 | -84.73371 | 30291 ft | 370 kts | 245° |
| 2026-04-21 01:44 | 35.05788 | -84.78437 | 30288 ft | 369 kts | 245° |
| 2026-04-21 01:45 | 35.02932 | -84.83557 | 30285 ft | 369 kts | 245° |
| 2026-04-21 01:45 | 35.00071 | -84.88680 | 30285 ft | 369 kts | 245° |
| 2026-04-21 01:46 | 34.97255 | -84.93718 | 30284 ft | 369 kts | 245° |
| 2026-04-21 01:46 | 34.94360 | -84.98877 | 30296 ft | 369 kts | 245° |
| 2026-04-21 01:47 | 34.91588 | -85.03820 | 30282 ft | 368 kts | 245° |
| 2026-04-21 01:47 | 34.88687 | -85.08990 | 30284 ft | 369 kts | 245° |
| 2026-04-21 01:48 | 34.86334 | -85.13168 | 30294 ft | 368 kts | 245° |
| 2026-04-21 01:48 | 34.83403 | -85.18370 | 30285 ft | 367 kts | 245° |
| 2026-04-21 01:49 | 34.80635 | -85.23272 | 30288 ft | 367 kts | 245° |
| 2026-04-21 01:49 | 34.77760 | -85.28343 | 30299 ft | 369 kts | 244° |
| 2026-04-21 01:50 | 34.74645 | -85.33131 | 30292 ft | 372 kts | 240° |
| 2026-04-21 01:50 | 34.71399 | -85.37952 | 30278 ft | 371 kts | 241° |
| 2026-04-21 01:51 | 34.68230 | -85.42879 | 30285 ft | 368 kts | 242° |
| 2026-04-21 01:51 | 34.65220 | -85.47523 | 30286 ft | 367 kts | 242° |
| 2026-04-21 01:52 | 34.60612 | -85.54585 | 30293 ft | 367 kts | 242° |
| 2026-04-21 01:53 | 34.57455 | -85.59426 | 30300 ft | 366 kts | 242° |
| 2026-04-21 01:53 | 34.54324 | -85.64220 | 30299 ft | 364 kts | 242° |
| 2026-04-21 01:54 | 34.51193 | -85.69006 | 30296 ft | 364 kts | 242° |
| 2026-04-21 01:54 | 34.48049 | -85.73802 | 30302 ft | 363 kts | 242° |
| 2026-04-21 01:55 | 34.44973 | -85.78491 | 30310 ft | 363 kts | 242° |
| 2026-04-21 01:55 | 34.42075 | -85.82915 | 30298 ft | 362 kts | 242° |
| 2026-04-21 01:56 | 34.39075 | -85.87465 | 30303 ft | 362 kts | 242° |
| 2026-04-21 01:56 | 34.35985 | -85.92159 | 30299 ft | 361 kts | 242° |
| 2026-04-21 01:57 | 34.32943 | -85.96758 | 30305 ft | 360 kts | 242° |
| 2026-04-21 01:57 | 34.29858 | -86.01457 | 30302 ft | 359 kts | 242° |
| 2026-04-21 01:58 | 34.26746 | -86.06167 | 30304 ft | 360 kts | 242° |
| 2026-04-21 01:58 | 34.23611 | -86.10882 | 30301 ft | 360 kts | 242° |
| 2026-04-21 01:59 | 34.20487 | -86.15609 | 30299 ft | 360 kts | 242° |
| 2026-04-21 01:59 | 34.17394 | -86.20243 | 30297 ft | 360 kts | 242° |
| 2026-04-21 02:00 | 34.14299 | -86.24909 | 30313 ft | 360 kts | 242° |
| 2026-04-21 02:00 | 34.11164 | -86.29644 | 30315 ft | 360 kts | 242° |
| 2026-04-21 02:01 | 34.08203 | -86.34088 | 30306 ft | 360 kts | 242° |
| 2026-04-21 02:01 | 34.05182 | -86.38623 | 30308 ft | 360 kts | 242° |
| 2026-04-21 02:02 | 34.02104 | -86.43220 | 30300 ft | 361 kts | 242° |
| 2026-04-21 02:02 | 33.99101 | -86.47701 | 30330 ft | 361 kts | 242° |
| 2026-04-21 02:03 | 33.96005 | -86.52327 | 30326 ft | 357 kts | 241° |
| 2026-04-21 02:03 | 33.93112 | -86.56650 | 30330 ft | 358 kts | 241° |
| 2026-04-21 02:04 | 33.90001 | -86.61273 | 30332 ft | 358 kts | 241° |
| 2026-04-21 02:04 | 33.86874 | -86.65928 | 30333 ft | 358 kts | 241° |
| 2026-04-21 02:05 | 33.83857 | -86.70404 | 30333 ft | 357 kts | 241° |
| 2026-04-21 02:05 | 33.80830 | -86.74916 | 30330 ft | 358 kts | 241° |
| 2026-04-21 02:06 | 33.77716 | -86.79529 | 30350 ft | 358 kts | 241° |
| 2026-04-21 02:06 | 33.74561 | -86.84183 | 30345 ft | 357 kts | 240° |
| 2026-04-21 02:07 | 33.71540 | -86.88653 | 30340 ft | 358 kts | 240° |
| 2026-04-21 02:07 | 33.68412 | -86.93278 | 30338 ft | 358 kts | 240° |
| 2026-04-21 02:08 | 33.65296 | -86.97864 | 30341 ft | 358 kts | 240° |
| 2026-04-21 02:08 | 33.62291 | -87.02297 | 30341 ft | 358 kts | 240° |
| 2026-04-21 02:09 | 33.59132 | -87.06939 | 30331 ft | 358 kts | 240° |
| 2026-04-21 02:09 | 33.56112 | -87.11377 | 30337 ft | 358 kts | 240° |
| 2026-04-21 02:10 | 33.53053 | -87.15869 | 30347 ft | 357 kts | 240° |
| 2026-04-21 02:10 | 33.49930 | -87.20452 | 30331 ft | 358 kts | 240° |
| 2026-04-21 02:11 | 33.46764 | -87.25068 | 30336 ft | 359 kts | 240° |
| 2026-04-21 02:11 | 33.43705 | -87.29549 | 30335 ft | 358 kts | 240° |
| 2026-04-21 02:12 | 33.40597 | -87.34085 | 30340 ft | 358 kts | 240° |
| 2026-04-21 02:12 | 33.37446 | -87.38675 | 30331 ft | 359 kts | 240° |
| 2026-04-21 02:13 | 33.34411 | -87.43099 | 30326 ft | 359 kts | 240° |
| 2026-04-21 02:13 | 33.31359 | -87.47544 | 30318 ft | 359 kts | 239° |
| 2026-04-21 02:14 | 33.28175 | -87.52157 | 30321 ft | 359 kts | 239° |
| 2026-04-21 02:14 | 33.25015 | -87.56745 | 30327 ft | 357 kts | 239° |
| 2026-04-21 02:15 | 33.22019 | -87.61094 | 30320 ft | 358 kts | 239° |
| 2026-04-21 02:15 | 33.18914 | -87.65581 | 30321 ft | 358 kts | 239° |
| 2026-04-21 02:16 | 33.15807 | -87.70062 | 30326 ft | 357 kts | 239° |
| 2026-04-21 02:16 | 33.12762 | -87.74471 | 30327 ft | 357 kts | 239° |
| 2026-04-21 02:17 | 33.09601 | -87.79026 | 30317 ft | 357 kts | 239° |
| 2026-04-21 02:17 | 33.06566 | -87.83397 | 30323 ft | 356 kts | 239° |
| 2026-04-21 02:18 | 33.03390 | -87.87958 | 30321 ft | 356 kts | 239° |
| 2026-04-21 02:18 | 33.00252 | -87.92470 | 30325 ft | 355 kts | 239° |
| 2026-04-21 02:19 | 32.97264 | -87.96757 | 30320 ft | 355 kts | 239° |
| 2026-04-21 02:19 | 32.94125 | -88.01261 | 30339 ft | 354 kts | 239° |
| 2026-04-21 02:20 | 32.91027 | -88.05692 | 30332 ft | 354 kts | 239° |
| 2026-04-21 02:20 | 32.87898 | -88.10172 | 30334 ft | 354 kts | 239° |
| 2026-04-21 02:21 | 32.84866 | -88.14514 | 30331 ft | 353 kts | 238° |
| 2026-04-21 02:21 | 32.81739 | -88.18975 | 30334 ft | 353 kts | 238° |
| 2026-04-21 02:22 | 32.78598 | -88.23445 | 30336 ft | 353 kts | 238° |
| 2026-04-21 02:22 | 32.75489 | -88.27859 | 30338 ft | 351 kts | 238° |
| 2026-04-21 02:23 | 32.72913 | -88.31524 | 30341 ft | 352 kts | 238° |
| 2026-04-21 02:23 | 32.69794 | -88.35948 | 30340 ft | 352 kts | 238° |
| 2026-04-21 02:24 | 32.66727 | -88.40296 | 30335 ft | 352 kts | 238° |
| 2026-04-21 02:24 | 32.63652 | -88.44651 | 30354 ft | 351 kts | 238° |
| 2026-04-21 02:25 | 32.60542 | -88.49049 | 30335 ft | 352 kts | 238° |
| 2026-04-21 02:25 | 32.57494 | -88.53376 | 30347 ft | 352 kts | 238° |
| 2026-04-21 02:26 | 32.54333 | -88.57830 | 30345 ft | 352 kts | 238° |
| 2026-04-21 02:26 | 32.51336 | -88.62051 | 30342 ft | 352 kts | 238° |
| 2026-04-21 02:27 | 32.48311 | -88.66316 | 30336 ft | 352 kts | 238° |
| 2026-04-21 02:27 | 32.45390 | -88.70423 | 30341 ft | 352 kts | 238° |
| 2026-04-21 02:28 | 32.42332 | -88.74723 | 30325 ft | 353 kts | 238° |
| 2026-04-21 02:28 | 32.39179 | -88.79155 | 30336 ft | 352 kts | 238° |
| 2026-04-21 02:29 | 32.35644 | -88.83184 | 30346 ft | 365 kts | 225° |
| 2026-04-21 02:29 | 32.31864 | -88.86350 | 30326 ft | 364 kts | 226° |
| 2026-04-21 02:30 | 32.27923 | -88.90121 | 30326 ft | 361 kts | 229° |
| 2026-04-21 02:30 | 32.24208 | -88.93821 | 30332 ft | 362 kts | 228° |
| 2026-04-21 02:31 | 32.20381 | -88.97530 | 30329 ft | 363 kts | 228° |
| 2026-04-21 02:31 | 32.16474 | -89.01295 | 30331 ft | 363 kts | 228° |
| 2026-04-21 02:32 | 32.12619 | -89.05025 | 30332 ft | 362 kts | 228° |
| 2026-04-21 02:32 | 32.08711 | -89.08810 | 30337 ft | 363 kts | 228° |
| 2026-04-21 02:33 | 32.04877 | -89.12510 | 30334 ft | 364 kts | 228° |
| 2026-04-21 02:33 | 32.01030 | -89.16216 | 30331 ft | 363 kts | 228° |
| 2026-04-21 02:34 | 31.97106 | -89.19994 | 30320 ft | 362 kts | 227° |
| 2026-04-21 02:34 | 31.93239 | -89.23704 | 30321 ft | 362 kts | 227° |
| 2026-04-21 02:35 | 31.89470 | -89.27326 | 30323 ft | 362 kts | 227° |
| 2026-04-21 02:35 | 31.85831 | -89.30828 | 30323 ft | 363 kts | 227° |
| 2026-04-21 02:36 | 31.81935 | -89.34557 | 30322 ft | 363 kts | 227° |
| 2026-04-21 02:36 | 31.78032 | -89.38300 | 30326 ft | 363 kts | 227° |
| 2026-04-21 02:37 | 31.74117 | -89.42033 | 30320 ft | 363 kts | 227° |
| 2026-04-21 02:37 | 31.70290 | -89.45695 | 30319 ft | 363 kts | 227° |
| 2026-04-21 02:38 | 31.66321 | -89.49484 | 30317 ft | 363 kts | 227° |
| 2026-04-21 02:38 | 31.62765 | -89.52853 | 30327 ft | 363 kts | 227° |
| 2026-04-21 02:39 | 31.58941 | -89.56518 | 30324 ft | 363 kts | 227° |
| 2026-04-21 02:39 | 31.54986 | -89.60293 | 30324 ft | 363 kts | 227° |
| 2026-04-21 02:40 | 31.51232 | -89.63860 | 30321 ft | 364 kts | 227° |
| 2026-04-21 02:40 | 31.47323 | -89.67569 | 30330 ft | 363 kts | 227° |
| 2026-04-21 02:41 | 31.43453 | -89.71254 | 30246 ft | 365 kts | 227° |
| 2026-04-21 02:41 | 31.41463 | -89.73146 | 29945 ft | 365 kts | 227° |
| 2026-04-21 02:41 | 31.39560 | -89.74936 | 29713 ft | 365 kts | 227° |
| 2026-04-21 02:41 | 31.37596 | -89.76794 | 29141 ft | 370 kts | 226° |
| 2026-04-21 02:42 | 31.35595 | -89.78691 | 28675 ft | 370 kts | 226° |
| 2026-04-21 02:42 | 31.33638 | -89.80548 | 28157 ft | 373 kts | 226° |
| 2026-04-21 02:42 | 31.31615 | -89.82466 | 27698 ft | 375 kts | 226° |
| 2026-04-21 02:42 | 31.29690 | -89.84288 | 27186 ft | 379 kts | 225° |
| 2026-04-21 02:43 | 31.27655 | -89.86207 | 26703 ft | 381 kts | 225° |
| 2026-04-21 02:43 | 31.25601 | -89.88145 | 26214 ft | 383 kts | 225° |
| 2026-04-21 02:43 | 31.23539 | -89.90090 | 25666 ft | 388 kts | 225° |
| 2026-04-21 02:43 | 31.21433 | -89.92074 | 25195 ft | 387 kts | 224° |
| 2026-04-21 02:44 | 31.19350 | -89.94034 | 24646 ft | 385 kts | 224° |
| 2026-04-21 02:44 | 31.17293 | -89.95971 | 24164 ft | 383 kts | 224° |
| 2026-04-21 02:44 | 31.15357 | -89.97795 | 23669 ft | 381 kts | 224° |
| 2026-04-21 02:44 | 31.13290 | -89.99741 | 23145 ft | 379 kts | 224° |
| 2026-04-21 02:45 | 31.11310 | -90.01604 | 22699 ft | 375 kts | 224° |
| 2026-04-21 02:45 | 31.09261 | -90.03532 | 22154 ft | 375 kts | 224° |
| 2026-04-21 02:45 | 31.07237 | -90.05433 | 21676 ft | 372 kts | 223° |
| 2026-04-21 02:45 | 31.05227 | -90.07322 | 21195 ft | 369 kts | 223° |
| 2026-04-21 02:46 | 31.03322 | -90.09110 | 20686 ft | 368 kts | 223° |
| 2026-04-21 02:46 | 31.01425 | -90.10890 | 20272 ft | 364 kts | 223° |
| 2026-04-21 02:46 | 30.99430 | -90.12760 | 19742 ft | 363 kts | 223° |
| 2026-04-21 02:46 | 30.97639 | -90.14438 | 19319 ft | 361 kts | 223° |
| 2026-04-21 02:47 | 30.95618 | -90.16329 | 18832 ft | 358 kts | 222° |
| 2026-04-21 02:47 | 30.93685 | -90.18139 | 18337 ft | 357 kts | 222° |
| 2026-04-21 02:47 | 30.91766 | -90.19924 | 17878 ft | 355 kts | 221° |
| 2026-04-21 02:47 | 30.89782 | -90.21586 | 17374 ft | 356 kts | 211° |
| 2026-04-21 02:48 | 30.87455 | -90.22487 | 16956 ft | 358 kts | 190° |
| 2026-04-21 02:48 | 30.84958 | -90.22541 | 16395 ft | 360 kts | 180° |
| 2026-04-21 02:48 | 30.82512 | -90.22340 | 15630 ft | 365 kts | 177° |
| 2026-04-21 02:48 | 30.80039 | -90.22109 | 15185 ft | 355 kts | 178° |
| 2026-04-21 02:49 | 30.77668 | -90.21920 | 14751 ft | 348 kts | 178° |
| 2026-04-21 02:49 | 30.75243 | -90.21749 | 14277 ft | 342 kts | 178° |
| 2026-04-21 02:49 | 30.72877 | -90.21588 | 13809 ft | 338 kts | 178° |
| 2026-04-21 02:49 | 30.70549 | -90.21422 | 13376 ft | 333 kts | 178° |
| 2026-04-21 02:50 | 30.68253 | -90.21251 | 12949 ft | 327 kts | 178° |
| 2026-04-21 02:50 | 30.65982 | -90.21083 | 12503 ft | 322 kts | 178° |
| 2026-04-21 02:50 | 30.63792 | -90.20922 | 12089 ft | 317 kts | 177° |
| 2026-04-21 02:50 | 30.61588 | -90.20763 | 11650 ft | 308 kts | 177° |
| 2026-04-21 02:51 | 30.59497 | -90.20614 | 11277 ft | 298 kts | 177° |
| 2026-04-21 02:51 | 30.57424 | -90.20465 | 10889 ft | 302 kts | 176° |
| 2026-04-21 02:51 | 30.55327 | -90.20309 | 10471 ft | 301 kts | 176° |
| 2026-04-21 02:51 | 30.53267 | -90.20157 | 10090 ft | 299 kts | 175° |
| 2026-04-21 02:52 | 30.51200 | -90.20007 | 9702 ft | 295 kts | 175° |
| 2026-04-21 02:52 | 30.49166 | -90.19860 | 9299 ft | 293 kts | 175° |
| 2026-04-21 02:52 | 30.47130 | -90.19718 | 8938 ft | 291 kts | 174° |
| 2026-04-21 02:52 | 30.45109 | -90.19571 | 8525 ft | 291 kts | 174° |
| 2026-04-21 02:53 | 30.43261 | -90.19427 | 8187 ft | 289 kts | 173° |
| 2026-04-21 02:53 | 30.41284 | -90.19278 | 7803 ft | 289 kts | 174° |
| 2026-04-21 02:53 | 30.39285 | -90.19131 | 7431 ft | 287 kts | 173° |
| 2026-04-21 02:53 | 30.37289 | -90.18985 | 7028 ft | 286 kts | 173° |
| 2026-04-21 02:54 | 30.35309 | -90.18846 | 6664 ft | 284 kts | 173° |
| 2026-04-21 02:54 | 30.33353 | -90.18709 | 6289 ft | 283 kts | 173° |
| 2026-04-21 02:54 | 30.31418 | -90.18573 | 5911 ft | 283 kts | 173° |
| 2026-04-21 02:54 | 30.29444 | -90.18425 | 5533 ft | 282 kts | 173° |
| 2026-04-21 02:55 | 30.27528 | -90.18282 | 5161 ft | 280 kts | 173° |
| 2026-04-21 02:55 | 30.25595 | -90.18140 | 4793 ft | 278 kts | 173° |
| 2026-04-21 02:55 | 30.23692 | -90.18002 | 4428 ft | 276 kts | 173° |
| 2026-04-21 02:55 | 30.21775 | -90.17875 | 4223 ft | 269 kts | 176° |
| 2026-04-21 02:56 | 30.19953 | -90.18305 | 4128 ft | 278 kts | 205° |
| 2026-04-21 02:56 | 30.17679 | -90.21792 | 4004 ft | 285 kts | 251° |
| 2026-04-21 02:56 | 30.17026 | -90.23895 | 4001 ft | 283 kts | 251° |
| 2026-04-21 02:57 | 30.16582 | -90.25301 | 3985 ft | 284 kts | 251° |
| 2026-04-21 02:57 | 30.15735 | -90.27986 | 3999 ft | 284 kts | 251° |
| 2026-04-21 02:57 | 30.15037 | -90.30205 | 4001 ft | 284 kts | 251° |
| 2026-04-21 02:57 | 30.14365 | -90.32341 | 3996 ft | 285 kts | 251° |
| 2026-04-21 02:58 | 30.13735 | -90.34344 | 3996 ft | 284 kts | 251° |
| 2026-04-21 02:58 | 30.13046 | -90.36535 | 3996 ft | 283 kts | 251° |
| 2026-04-21 02:58 | 30.12400 | -90.38603 | 3994 ft | 283 kts | 251° |
| 2026-04-21 02:58 | 30.11737 | -90.40723 | 3990 ft | 281 kts | 251° |
| 2026-04-21 02:59 | 30.11084 | -90.42805 | 3920 ft | 268 kts | 251° |
| 2026-04-21 02:59 | 30.10478 | -90.44747 | 3922 ft | 253 kts | 251° |
| 2026-04-21 02:59 | 30.09660 | -90.46471 | 3905 ft | 239 kts | 224° |
| 2026-04-21 02:59 | 30.08250 | -90.47381 | 3916 ft | 229 kts | 187° |
| 2026-04-21 03:00 | 30.07215 | -90.47368 | 3965 ft | 224 kts | 163° |
| 2026-04-21 03:00 | 30.05323 | -90.46419 | 3570 ft | 223 kts | 150° |
| 2026-04-21 03:00 | 30.04047 | -90.45455 | 3098 ft | 217 kts | 128° |
| 2026-04-21 03:00 | 30.03394 | -90.44041 | 2706 ft | 205 kts | 102° |
| 2026-04-21 03:01 | 30.03225 | -90.43084 | 2462 ft | 202 kts | 98° |
| 2026-04-21 03:01 | 30.02893 | -90.41549 | 2212 ft | 193 kts | 106° |
| 2026-04-21 03:01 | 30.02493 | -90.40119 | 2002 ft | 178 kts | 107° |
| 2026-04-21 03:01 | 30.02195 | -90.38805 | 1765 ft | 166 kts | 105° |
| 2026-04-21 03:02 | 30.01907 | -90.37557 | 1562 ft | 155 kts | 107° |
| 2026-04-21 03:02 | 30.01626 | -90.36417 | 1365 ft | 144 kts | 107° |
| 2026-04-21 03:02 | 30.01382 | -90.35396 | 1203 ft | 137 kts | 107° |
| 2026-04-21 03:02 | 30.01133 | -90.34338 | 1062 ft | 140 kts | 107° |
| 2026-04-21 03:03 | 30.00871 | -90.33242 | 874 ft | 141 kts | 108° |
| 2026-04-21 03:03 | 30.00679 | -90.32444 | 755 ft | 143 kts | 107° |
| 2026-04-21 03:03 | 30.00430 | -90.31398 | 583 ft | 145 kts | 107° |
| 2026-04-21 03:03 | 30.00166 | -90.30293 | 404 ft | 142 kts | 107° |
| 2026-04-21 03:04 | 29.99902 | -90.29192 | 214 ft | 143 kts | 106° |
| 2026-04-21 03:04 | 29.99654 | -90.28132 | 48 ft | 137 kts | 107° |
| 2026-04-21 03:04 | 29.99418 | -90.27157 | 13 ft | 107 kts | 105° |
| 2026-04-21 03:04 | 29.99261 | -90.26507 | 13 ft | 61 kts | 105° |
| 2026-04-21 03:05 | 29.99175 | -90.26152 | 8 ft | 28 kts | 105° |
| 2026-04-21 03:05 | 29.99130 | -90.25973 | 12 ft | 22 kts | 109° |
| 2026-04-21 03:05 | 29.99076 | -90.25820 | 10 ft | 23 kts | 118° |
| 2026-04-21 03:05 | 29.99010 | -90.25706 | 12 ft | 8 kts | 129° |
| 2026-04-21 03:06 | 29.98977 | -90.25661 | 13 ft | 8 kts | 136° |
| 2026-04-21 03:06 | 29.98929 | -90.25608 | 14 ft | 11 kts | 135° |
| 2026-04-21 03:06 | 29.98882 | -90.25564 | 11 ft | 4 kts | 149° |
| 2026-04-21 03:06 | 29.98875 | -90.25560 | 11 ft | 2 kts | 150° |
| 2026-04-21 03:07 | 29.98858 | -90.25553 | 12 ft | 4 kts | 172° |
| 2026-04-21 03:07 | 29.98833 | -90.25555 | 11 ft | 3 kts | 188° |
| 2026-04-21 03:07 | 29.98812 | -90.25558 | 11 ft | 3 kts | 186° |
| 2026-04-21 03:07 | 29.98802 | -90.25560 | 11 ft | 1 kts | 185° |
| 2026-04-21 03:08 | 29.98791 | -90.25561 | 11 ft | 1 kts | 186° |
| 2026-04-21 03:08 | 29.98790 | -90.25561 | 11 ft | 0 kts | 186° |